MSC Nuria — 3ESE2 — position and weather

sailwx.info

Track history (hours):
 
Tides and Currents Weather Stations Pressure Air Temp Water Temp Dewpoint Dewpoint Depression Visibility Wind Speed Wind Dir Waves Ship Positions

MSC Nuria

Last reported at 2014-Dec-10 02:33 UTC. Time now 2014-Dec-18 12:27 UTC.
Position N 25°45' W 079°41'.
Warning: this ship's position is 8 days out of date.

Length 275 m; draft 10 m.

Type: Ship (hazmat cat A). MMSI: 370272977.

Date/timePositionNaut miles runAvg speedWind from/ knotsBaromVisibWave heightAir tempDewpointWater temp
2014-Dec-10 02:33N 25°45' W 079°41'1616.1
2014-Dec-10 01:33N 25°57' W 079°53'1413.9
2014-Dec-10 00:33N 26°05' W 080°05'2 2.2
2014-Dec-09 23:31N 26°04' W 080°07'0 0.0
2014-Dec-09 22:25N 26°04' W 080°07'0 0.0
2014-Dec-09 21:33N 26°04' W 080°07'0 0.0
2014-Dec-09 20:24N 26°04' W 080°07'0 0.0
2014-Dec-09 19:33N 26°04' W 080°07'0 0.0
2014-Dec-09 18:29N 26°04' W 080°07'0 0.0
2014-Dec-09 17:32N 26°04' W 080°07'0 0.0
2014-Dec-09 16:31N 26°04' W 080°07'0 0.0
2014-Dec-09 15:22N 26°04' W 080°07'0 0.0
2014-Dec-09 14:33N 26°04' W 080°07'0 0.0
2014-Dec-09 13:27N 26°04' W 080°07'0 0.0
2014-Dec-09 12:33N 26°04' W 080°07'0 0.0
2014-Dec-09 11:26N 26°04' W 080°07'0 0.0
2014-Dec-09 10:32N 26°04' W 080°07'0 0.0
2014-Dec-09 09:34N 26°04' W 080°07'4 3.8
2014-Dec-09 08:33N 26°05' W 080°03'7 7.1
2014-Dec-09 07:33N 26°11' W 079°59'1413.8
2014-Dec-09 06:33N 26°21' W 079°48'1515.1
2014-Dec-09 05:34N 26°36' W 079°45'1616.2
2014-Dec-09 04:34N 26°52' W 079°45'32115.8
2014-Dec-08 08:16N 32°06' W 081°00'7 2.5
2014-Dec-08 05:26N 32°08' W 081°09'0 0.0
2014-Dec-08 03:31N 32°08' W 081°09'0 0.0
2014-Dec-08 02:31N 32°08' W 081°09'0 0.0
2014-Dec-08 01:24N 32°08' W 081°09'0 0.0
2014-Dec-08 00:12N 32°08' W 081°09'0 0.0
2014-Dec-07 22:20N 32°08' W 081°09'0 0.0
2014-Dec-07 19:31N 32°08' W 081°09'0 0.0
2014-Dec-07 18:30N 32°08' W 081°09'0 0.0
2014-Dec-07 17:33N 32°08' W 081°09'0 0.0
2014-Dec-07 16:31N 32°08' W 081°09'0 0.0
2014-Dec-07 15:32N 32°08' W 081°09'0 0.0
2014-Dec-07 14:19N 32°08' W 081°09'0 0.0
2014-Dec-07 13:32N 32°08' W 081°09'3 2.7
2014-Dec-07 12:28N 32°06' W 081°06'6 6.2
2014-Dec-07 11:29N 32°05' W 080°59'  
Track history (hours):
 
Tides and Currents Weather Stations Pressure Air Temp Water Temp Dewpoint Dewpoint Depression Visibility Wind Speed Wind Dir Waves Ship Positions

MSC Nuria

Last reported at 2014-Dec-10 02:33 UTC. Time now 2014-Dec-18 12:27 UTC.
Position N 25°45' W 079°41'.
Warning: this ship's position is 8 days out of date.

Length 275 m; draft 10 m.

Type: Ship (hazmat cat A). MMSI: 370272977.

Date/timePositionNaut miles runAvg speedWind from/ knotsBaromVisibWave heightAir tempDewpointWater temp
2014-Dec-10 02:33N 25°45' W 079°41'1616.1
2014-Dec-10 01:33N 25°57' W 079°53'1413.9
2014-Dec-10 00:33N 26°05' W 080°05'2 2.2
2014-Dec-09 23:31N 26°04' W 080°07'0 0.0
2014-Dec-09 22:25N 26°04' W 080°07'0 0.0
2014-Dec-09 21:33N 26°04' W 080°07'0 0.0
2014-Dec-09 20:24N 26°04' W 080°07'0 0.0
2014-Dec-09 19:33N 26°04' W 080°07'0 0.0
2014-Dec-09 18:29N 26°04' W 080°07'0 0.0
2014-Dec-09 17:32N 26°04' W 080°07'0 0.0
2014-Dec-09 16:31N 26°04' W 080°07'0 0.0
2014-Dec-09 15:22N 26°04' W 080°07'0 0.0
2014-Dec-09 14:33N 26°04' W 080°07'0 0.0
2014-Dec-09 13:27N 26°04' W 080°07'0 0.0
2014-Dec-09 12:33N 26°04' W 080°07'0 0.0
2014-Dec-09 11:26N 26°04' W 080°07'0 0.0
2014-Dec-09 10:32N 26°04' W 080°07'0 0.0
2014-Dec-09 09:34N 26°04' W 080°07'4 3.8
2014-Dec-09 08:33N 26°05' W 080°03'7 7.1
2014-Dec-09 07:33N 26°11' W 079°59'1413.8
2014-Dec-09 06:33N 26°21' W 079°48'1515.1
2014-Dec-09 05:34N 26°36' W 079°45'1616.2
2014-Dec-09 04:34N 26°52' W 079°45'32115.8
2014-Dec-08 08:16N 32°06' W 081°00'7 2.5
2014-Dec-08 05:26N 32°08' W 081°09'0 0.0
2014-Dec-08 03:31N 32°08' W 081°09'0 0.0
2014-Dec-08 02:31N 32°08' W 081°09'0 0.0
2014-Dec-08 01:24N 32°08' W 081°09'0 0.0
2014-Dec-08 00:12N 32°08' W 081°09'0 0.0
2014-Dec-07 22:20N 32°08' W 081°09'0 0.0
2014-Dec-07 19:31N 32°08' W 081°09'0 0.0
2014-Dec-07 18:30N 32°08' W 081°09'0 0.0
2014-Dec-07 17:33N 32°08' W 081°09'0 0.0
2014-Dec-07 16:31N 32°08' W 081°09'0 0.0
2014-Dec-07 15:32N 32°08' W 081°09'0 0.0
2014-Dec-07 14:19N 32°08' W 081°09'0 0.0
2014-Dec-07 13:32N 32°08' W 081°09'3 2.7
2014-Dec-07 12:28N 32°06' W 081°06'6 6.2
2014-Dec-07 11:29N 32°05' W 080°59'  

Dump ship's entire track history